West Pike, Pennsylvania
Current Conditions -  °F | °C
As of 9:15 PM on Monday 22 Dec 2014 (Local Time) from KN38 Reporting Station
Haze Haze  
Wind Chill: 22°   Ceiling: 800
Heat Index: 30°   Visibility: 3mi
Dew Point: 28°   Wind: 9mph
Humidity: 93%   Direction: 180°S
Pressure: 30.08"   Gusts: NA
Location:  41.6755°N, 77.7071°W
Report Text: KN38 230215Z AUTO 18008KT 3SM BR OVC008 M01/M02 A3008 RMK AO2
Loading
Personal Weather Stations






























Interactive Weather Map New forecast layout! Learn more

10-Day Weather Forecast

Advertisements
Track Severe Weather on mobile